createdAt,value
2023-10-27T00:02:06.853Z,99546.69
2023-10-27T00:04:35.626Z,99538.66
2023-10-27T00:07:03.930Z,99537.00
2023-10-27T00:09:37.258Z,99542.34
2023-10-27T00:12:05.688Z,99531.66
2023-10-27T00:14:34.643Z,99537.00
2023-10-27T00:17:02.955Z,99528.97
2023-10-27T00:19:31.300Z,99537.84
2023-10-27T00:21:59.581Z,99547.72
2023-10-27T00:24:28.500Z,99542.34
2023-10-27T00:26:58.095Z,99535.34
2023-10-27T00:29:26.820Z,99536.16
2023-10-27T00:31:55.031Z,99537.00
2023-10-27T00:34:23.261Z,99530.78
2023-10-27T00:36:51.621Z,99538.00
2023-10-27T00:39:19.806Z,99539.03
2023-10-27T00:41:48.009Z,99529.97
2023-10-27T00:44:17.663Z,99529.97
2023-10-27T00:46:46.793Z,99533.66
2023-10-27T00:49:15.694Z,99535.34
2023-10-27T00:51:47.797Z,99526.63
2023-10-27T00:54:17.083Z,99529.97
2023-10-27T00:56:46.668Z,99526.28
2023-10-27T00:59:15.386Z,99525.44
2023-10-27T01:01:45.287Z,99521.94
2023-10-27T01:04:13.642Z,99527.31
2023-10-27T01:06:42.680Z,99523.78
2023-10-27T01:09:11.373Z,99517.59
2023-10-27T01:11:40.669Z,99529.97
2023-10-27T01:14:08.866Z,99517.59
2023-10-27T01:16:37.042Z,99522.94
2023-10-27T01:19:06.826Z,99513.91
2023-10-27T01:21:35.064Z,99508.56
2023-10-27T01:24:05.878Z,99521.94
2023-10-27T01:26:34.056Z,99519.25
2023-10-27T01:29:02.265Z,99519.25
2023-10-27T01:31:30.800Z,99513.91
2023-10-27T01:33:59.023Z,99517.41
2023-10-27T01:36:27.301Z,99515.56
2023-10-27T01:38:56.702Z,99512.03
2023-10-27T01:41:26.378Z,99504.88
2023-10-27T01:43:54.548Z,99500.69
2023-10-27T01:46:22.833Z,99508.22
2023-10-27T01:48:51.113Z,99509.03
2023-10-27T01:51:19.318Z,99494.47
2023-10-27T01:53:47.690Z,99507.53
2023-10-27T01:56:15.884Z,99495.50
2023-10-27T01:58:46.497Z,99490.81
2023-10-27T02:01:15.836Z,99497.16
2023-10-27T02:03:44.353Z,99496.19
2023-10-27T02:06:12.616Z,99490.81
2023-10-27T02:08:41.117Z,99489.13
2023-10-27T02:11:10.192Z,99486.44
2023-10-27T02:13:38.505Z,99486.44
2023-10-27T02:16:09.474Z,99483.75
2023-10-27T02:18:37.773Z,99485.47
2023-10-27T02:21:06.677Z,99490.81
2023-10-27T02:23:35.368Z,99485.47
2023-10-27T02:26:03.596Z,99484.78
2023-10-27T02:28:31.867Z,99480.44
2023-10-27T02:31:00.146Z,99489.13
2023-10-27T02:33:30.217Z,99489.13
2023-10-27T02:35:58.445Z,99486.44
2023-10-27T02:38:26.657Z,99489.13
2023-10-27T02:40:54.865Z,99494.47
2023-10-27T02:43:23.111Z,99494.47
2023-10-27T02:46:02.436Z,99489.97
2023-10-27T02:48:32.269Z,99490.81
2023-10-27T02:51:00.490Z,99490.97
2023-10-27T02:53:28.759Z,99484.63
2023-10-27T02:55:57.082Z,99478.41
2023-10-27T02:58:25.395Z,99482.09
2023-10-27T03:00:53.652Z,99483.75
2023-10-27T03:03:21.903Z,99482.09
2023-10-27T03:05:51.530Z,99483.75
2023-10-27T03:08:20.122Z,99481.94
2023-10-27T03:10:48.318Z,99475.56
2023-10-27T03:13:16.537Z,99477.44
2023-10-27T03:15:44.765Z,99480.09
2023-10-27T03:18:13.780Z,99471.06
2023-10-27T03:20:41.977Z,99476.41
2023-10-27T03:23:11.588Z,99471.06
2023-10-27T03:25:39.814Z,99476.41
2023-10-27T03:28:08.520Z,99465.69
2023-10-27T03:30:36.761Z,99468.38
2023-10-27T03:33:05.114Z,99471.06
2023-10-27T03:35:34.022Z,99465.69
2023-10-27T03:38:02.304Z,99467.69
2023-10-27T03:40:32.106Z,99469.41
2023-10-27T03:43:00.368Z,99463.34
2023-10-27T03:45:28.656Z,99460.69
2023-10-27T03:47:56.905Z,99463.19
2023-10-27T03:50:25.127Z,99467.38
2023-10-27T03:52:53.339Z,99462.00
2023-10-27T03:55:21.791Z,99463.69
2023-10-27T03:57:52.061Z,99464.03
2023-10-27T04:00:21.056Z,99464.69
2023-10-27T04:02:49.513Z,99463.69
2023-10-27T04:05:17.829Z,99469.03
2023-10-27T04:07:46.036Z,99458.31
2023-10-27T04:10:14.365Z,99460.00
2023-10-27T04:12:42.651Z,99426.84
2023-10-27T04:15:13.357Z,99458.69
2023-10-27T04:17:41.589Z,99462.88
2023-10-27T04:20:10.974Z,99466.34
2023-10-27T04:22:39.415Z,99462.88
2023-10-27T04:25:07.767Z,99456.66
2023-10-27T04:27:36.705Z,99470.03
2023-10-27T04:30:08.499Z,99462.88
2023-10-27T04:32:39.100Z,99463.19
2023-10-27T04:35:07.476Z,99464.84
2023-10-27T04:37:36.024Z,99464.84
2023-10-27T04:40:04.500Z,99460.34
2023-10-27T04:42:32.802Z,99462.00
2023-10-27T04:45:01.485Z,99456.66
2023-10-27T04:47:29.734Z,99462.00
2023-10-27T04:49:59.378Z,99464.84
2023-10-27T04:52:27.574Z,99462.00
2023-10-27T04:54:56.496Z,99430.53
2023-10-27T04:57:24.894Z,99467.53
2023-10-27T04:59:53.949Z,99468.22
2023-10-27T05:02:22.139Z,99464.69
2023-10-27T05:04:50.423Z,99467.53
2023-10-27T05:07:20.137Z,99468.22
2023-10-27T05:09:48.490Z,99470.03
2023-10-27T05:12:16.959Z,99481.44
2023-10-27T05:14:45.246Z,99480.59
2023-10-27T05:17:14.420Z,99477.06
2023-10-27T05:19:42.604Z,99466.34
2023-10-27T05:22:10.854Z,99477.06
2023-10-27T05:24:40.557Z,99472.72
2023-10-27T05:27:08.736Z,99467.69
2023-10-27T05:29:36.969Z,99479.75
2023-10-27T05:32:05.642Z,99481.44
2023-10-27T05:34:33.985Z,99465.69
2023-10-27T05:37:02.261Z,99474.38
2023-10-27T05:39:30.771Z,99474.38
2023-10-27T05:42:00.380Z,99478.09
2023-10-27T05:44:28.659Z,99478.09
2023-10-27T05:46:56.912Z,99479.75
2023-10-27T05:49:25.137Z,99473.56
2023-10-27T05:51:53.341Z,99469.88
2023-10-27T05:54:21.645Z,99467.38
2023-10-27T05:56:50.350Z,99472.72
2023-10-27T05:59:19.961Z,99474.38
2023-10-27T06:01:57.367Z,99477.06
2023-10-27T06:04:32.123Z,99478.09
2023-10-27T06:07:01.094Z,99478.09
2023-10-27T06:09:30.774Z,99471.88
2023-10-27T06:11:58.996Z,99468.38
2023-10-27T06:14:28.660Z,99471.06
2023-10-27T06:16:56.905Z,99472.72
2023-10-27T06:19:25.997Z,99465.69
2023-10-27T06:21:54.839Z,99476.41
2023-10-27T06:24:23.001Z,99466.03
2023-10-27T06:26:51.190Z,99469.41
2023-10-27T06:29:21.005Z,99466.88
2023-10-27T06:31:50.624Z,99474.75
2023-10-27T06:34:18.873Z,99475.41
2023-10-27T06:36:49.070Z,99478.09
2023-10-27T06:39:17.385Z,99478.09
2023-10-27T06:41:47.536Z,99479.75
2023-10-27T06:44:15.796Z,99487.78
2023-10-27T06:46:45.556Z,99483.44
2023-10-27T06:49:15.376Z,99493.31
2023-10-27T06:51:43.872Z,99487.13
2023-10-27T06:54:12.376Z,99493.50
2023-10-27T06:56:40.620Z,99487.13
2023-10-27T06:59:08.844Z,99491.63
2023-10-27T07:01:37.165Z,99497.84
2023-10-27T07:04:06.078Z,99497.84
2023-10-27T07:06:35.730Z,99499.50
2023-10-27T07:09:04.919Z,99497.84
2023-10-27T07:11:33.177Z,99504.88
2023-10-27T07:14:03.036Z,99500.34
2023-10-27T07:16:31.705Z,99504.00
2023-10-27T07:18:59.977Z,99493.31
2023-10-27T07:21:28.236Z,99503.19
2023-10-27T07:23:58.039Z,99503.19
2023-10-27T07:26:26.245Z,99512.25
2023-10-27T07:28:54.515Z,99515.75
2023-10-27T07:31:23.325Z,99503.19
2023-10-27T07:33:52.117Z,99509.72
2023-10-27T07:36:20.483Z,99499.84
2023-10-27T07:38:50.884Z,99511.22
2023-10-27T07:41:20.603Z,99507.69
2023-10-27T07:43:48.829Z,99506.88
2023-10-27T07:46:17.221Z,99504.88
2023-10-27T07:48:45.508Z,99518.25
2023-10-27T07:51:13.771Z,99515.56
2023-10-27T07:53:44.506Z,99511.22
2023-10-27T07:56:13.007Z,99512.91
2023-10-27T07:58:43.095Z,99503.19
2023-10-27T08:01:11.523Z,99510.22
2023-10-27T08:03:40.269Z,99515.56
2023-10-27T08:06:09.799Z,99507.53
2023-10-27T08:08:39.299Z,99513.91
2023-10-27T08:11:07.787Z,99508.56
2023-10-27T08:13:38.808Z,99513.91
2023-10-27T08:16:09.249Z,99513.91
2023-10-27T08:18:37.806Z,99519.25
2023-10-27T08:21:06.805Z,99513.06
2023-10-27T08:23:35.063Z,99512.25
2023-10-27T08:26:03.278Z,99517.59
2023-10-27T08:28:31.537Z,99517.59
2023-10-27T08:31:00.430Z,99512.25
2023-10-27T08:33:30.114Z,99512.25
2023-10-27T08:36:04.682Z,99517.59
2023-10-27T08:38:34.080Z,99517.59
2023-10-27T08:41:02.502Z,99514.06
2023-10-27T08:43:32.036Z,99499.84
2023-10-27T08:46:01.197Z,99511.41
2023-10-27T08:48:30.857Z,99511.41
2023-10-27T08:51:05.358Z,99515.91
2023-10-27T08:53:33.758Z,99521.94
2023-10-27T08:56:02.259Z,99517.59
2023-10-27T08:58:30.744Z,99515.91
2023-10-27T09:00:59.421Z,99517.25
2023-10-27T09:03:29.707Z,99526.28
2023-10-27T09:05:59.619Z,99492.47
2023-10-27T09:08:27.992Z,99518.41
2023-10-27T09:10:57.032Z,99517.25
2023-10-27T09:13:25.653Z,99523.59
2023-10-27T09:15:53.955Z,99524.63
2023-10-27T09:18:36.950Z,99523.78
2023-10-27T09:21:07.854Z,99519.25
2023-10-27T09:23:46.044Z,99522.94
2023-10-27T09:26:14.576Z,99529.13
2023-10-27T09:28:43.195Z,99520.28
2023-10-27T09:31:12.535Z,99516.75
2023-10-27T09:33:40.838Z,99524.94
2023-10-27T09:36:12.060Z,99521.25
2023-10-27T09:38:40.985Z,99519.59
2023-10-27T09:41:10.939Z,99523.13
2023-10-27T09:43:43.207Z,99512.56
2023-10-27T09:46:13.773Z,99515.09
2023-10-27T09:48:45.341Z,99524.09
2023-10-27T09:51:17.790Z,99524.09
2023-10-27T09:53:49.545Z,99491.09
2023-10-27T09:56:19.152Z,99523.94
2023-10-27T09:58:49.389Z,99515.91
2023-10-27T10:01:18.472Z,99521.25
2023-10-27T10:03:46.914Z,99522.94
2023-10-27T10:06:19.379Z,99515.91
2023-10-27T10:09:10.349Z,99523.94
2023-10-27T10:11:55.738Z,99517.41
2023-10-27T10:14:50.130Z,99526.94
2023-10-27T10:17:41.312Z,99520.78
2023-10-27T10:20:12.048Z,99521.91
2023-10-27T10:22:59.795Z,99525.28
2023-10-27T10:25:29.823Z,99517.25
2023-10-27T10:28:25.420Z,99519.91
2023-10-27T10:31:26.397Z,99525.28
2023-10-27T10:34:12.544Z,99515.41
2023-10-27T10:36:42.838Z,99486.41
2023-10-27T10:39:15.422Z,99526.94
2023-10-27T10:42:02.607Z,99524.25
2023-10-27T10:44:32.245Z,99521.59
2023-10-27T10:47:06.287Z,99517.94
2023-10-27T10:49:37.643Z,99521.59
2023-10-27T10:52:07.011Z,99526.94
2023-10-27T10:54:37.009Z,99521.59
2023-10-27T10:57:09.206Z,99515.41
2023-10-27T10:59:38.395Z,99514.88
2023-10-27T11:02:06.963Z,99521.59
2023-10-27T11:07:07.676Z,99513.56
2023-10-27T11:09:37.308Z,99512.56
2023-10-27T11:12:06.295Z,99509.22
2023-10-27T11:14:43.708Z,99507.22
2023-10-27T11:17:13.650Z,99498.50
2023-10-27T11:19:57.475Z,99511.56
2023-10-27T11:22:26.496Z,99510.72
2023-10-27T11:24:56.382Z,99507.22
2023-10-27T11:27:25.960Z,99511.72
2023-10-27T11:30:01.362Z,99495.66
2023-10-27T11:32:29.727Z,99506.38
2023-10-27T11:34:58.884Z,99504.53
2023-10-27T11:37:28.227Z,99500.16
2023-10-27T11:39:58.785Z,99501.88
2023-10-27T11:42:27.090Z,99499.19
2023-10-27T11:44:55.277Z,99493.13
2023-10-27T11:47:26.472Z,99487.78
2023-10-27T11:49:55.139Z,99491.16
2023-10-27T11:52:23.723Z,99491.16
2023-10-27T11:54:51.956Z,99497.31
2023-10-27T11:57:21.651Z,99498.16
2023-10-27T11:59:52.090Z,99423.13
2023-10-27T12:02:20.863Z,99499.84
2023-10-27T12:04:49.092Z,99494.47
2023-10-27T12:07:18.639Z,99497.00
2023-10-27T12:09:47.127Z,99409.06
2023-10-27T12:12:15.330Z,99502.34
2023-10-27T12:14:45.129Z,99498.84
2023-10-27T12:17:13.472Z,99503.19
2023-10-27T12:19:41.668Z,99497.84
2023-10-27T12:22:10.716Z,99505.88
2023-10-27T12:24:38.946Z,99490.81
2023-10-27T12:27:10.546Z,99496.50
2023-10-27T12:29:38.806Z,99500.16
2023-10-27T12:32:11.178Z,99498.50
2023-10-27T12:34:39.372Z,99496.84
2023-10-27T12:37:09.032Z,99497.47
2023-10-27T12:39:37.335Z,99489.44
2023-10-27T12:42:08.901Z,99491.47
2023-10-27T12:44:37.090Z,99496.50
2023-10-27T12:47:05.486Z,99494.16
2023-10-27T12:49:35.427Z,99489.44
2023-10-27T12:52:03.625Z,99488.63
2023-10-27T12:54:32.424Z,99489.44
2023-10-27T12:57:00.800Z,99488.63
2023-10-27T12:59:29.025Z,99495.66
2023-10-27T13:01:57.373Z,99488.13
2023-10-27T13:04:26.111Z,99490.47
2023-10-27T13:06:56.221Z,99490.63
2023-10-27T13:09:24.500Z,99495.13
2023-10-27T13:11:55.415Z,99493.13
2023-10-27T13:14:24.302Z,99500.16
2023-10-27T13:16:53.076Z,99500.16
2023-10-27T13:19:22.304Z,99501.88
2023-10-27T13:21:50.454Z,99506.19
2023-10-27T13:24:20.112Z,99507.22
2023-10-27T13:26:48.298Z,99508.88
2023-10-27T13:29:16.489Z,99509.88
2023-10-27T13:31:45.830Z,99508.88
2023-10-27T13:34:14.865Z,99500.19
2023-10-27T13:36:44.520Z,99508.38
2023-10-27T13:39:12.845Z,99507.88
2023-10-27T13:41:42.435Z,99505.53
2023-10-27T13:44:10.754Z,99515.91
2023-10-27T13:46:39.470Z,99505.84
2023-10-27T13:49:12.324Z,99510.88
2023-10-27T13:51:41.018Z,99507.03
2023-10-27T13:54:11.740Z,99514.25
2023-10-27T13:56:40.662Z,99519.59
2023-10-27T13:59:10.753Z,99525.97
2023-10-27T14:01:40.560Z,99523.28
2023-10-27T14:04:09.053Z,99521.25
2023-10-27T14:06:40.013Z,99527.63
2023-10-27T14:09:09.830Z,99524.94
2023-10-27T14:11:39.596Z,99528.47
2023-10-27T14:14:10.382Z,99523.94
2023-10-27T14:16:38.833Z,99529.28
2023-10-27T14:19:07.356Z,99528.31
2023-10-27T14:21:39.883Z,99530.31
2023-10-27T14:24:09.340Z,99528.47
2023-10-27T14:26:37.686Z,99517.41
2023-10-27T14:29:07.795Z,99526.63
2023-10-27T14:31:37.760Z,99527.63
2023-10-27T14:34:08.105Z,99530.31
2023-10-27T14:36:36.329Z,99530.31
2023-10-27T14:39:07.198Z,99535.66
2023-10-27T14:41:36.483Z,99518.75
2023-10-27T14:44:04.965Z,99524.94
2023-10-27T14:46:34.010Z,99524.09
2023-10-27T14:49:04.077Z,99530.63
2023-10-27T14:51:32.632Z,99526.94
2023-10-27T14:54:01.707Z,99530.31
2023-10-27T14:56:30.995Z,99531.97
2023-10-27T14:58:59.215Z,99536.50
2023-10-27T15:01:27.370Z,99530.31
2023-10-27T15:03:55.613Z,99541.00
2023-10-27T15:06:26.338Z,99541.00
2023-10-27T15:08:54.985Z,99546.38
2023-10-27T15:11:23.271Z,99539.34
2023-10-27T15:13:52.973Z,99548.38
2023-10-27T15:16:21.769Z,99547.38
2023-10-27T15:18:50.512Z,99544.72
2023-10-27T15:21:18.979Z,99546.38
2023-10-27T15:23:49.940Z,99546.38
2023-10-27T15:26:19.063Z,99552.56
2023-10-27T15:28:48.559Z,99548.03
2023-10-27T15:31:17.065Z,99551.72
2023-10-27T15:33:47.307Z,99550.06
2023-10-27T15:36:16.262Z,99553.41
2023-10-27T15:38:44.978Z,99553.72
2023-10-27T15:41:28.398Z,99553.41
2023-10-27T15:43:58.099Z,99552.75
2023-10-27T15:46:27.171Z,99552.75
2023-10-27T15:48:55.440Z,99550.75
2023-10-27T15:51:24.152Z,99557.25
2023-10-27T15:53:57.477Z,99554.41
2023-10-27T15:56:29.128Z,99552.75
2023-10-27T15:58:59.655Z,99556.09
2023-10-27T16:01:27.930Z,99554.41
2023-10-27T16:03:56.380Z,99550.75
2023-10-27T16:06:24.696Z,99563.13
2023-10-27T16:08:54.847Z,99553.25
2023-10-27T16:11:24.298Z,99556.09
2023-10-27T16:13:54.063Z,99548.03
2023-10-27T16:16:22.477Z,99552.41
2023-10-27T16:18:52.066Z,99555.91
2023-10-27T16:21:20.677Z,99555.09
2023-10-27T16:23:48.855Z,99557.94
2023-10-27T16:26:17.833Z,99560.44
2023-10-27T16:28:47.073Z,99560.44
2023-10-27T16:31:16.711Z,99555.09
2023-10-27T16:33:45.109Z,99565.81
2023-10-27T16:36:13.390Z,99563.94
2023-10-27T16:38:41.930Z,99568.47
2023-10-27T16:41:11.209Z,99574.81
2023-10-27T16:43:41.591Z,99565.81
2023-10-27T16:46:09.978Z,99574.81
2023-10-27T16:48:39.726Z,99507.59
2023-10-27T16:51:12.162Z,99577.66
2023-10-27T16:53:40.801Z,99577.84
2023-10-27T16:56:10.167Z,99548.69
2023-10-27T16:58:39.709Z,99574.81
2023-10-27T17:01:08.650Z,99579.19
2023-10-27T17:03:38.082Z,99580.16
2023-10-27T17:06:08.545Z,99583.88
2023-10-27T17:08:36.952Z,99585.53
2023-10-27T17:11:06.888Z,99587.56
2023-10-27T17:13:37.096Z,99586.53
2023-10-27T17:16:08.726Z,99587.56
2023-10-27T17:18:38.459Z,99589.22
2023-10-27T17:21:15.515Z,99588.53
2023-10-27T17:23:44.864Z,99591.91
2023-10-27T17:26:13.215Z,99591.91
2023-10-27T17:28:42.569Z,99597.25
2023-10-27T17:31:11.689Z,99595.44
2023-10-27T17:33:40.733Z,99597.25
2023-10-27T17:36:11.695Z,99598.09
2023-10-27T17:38:41.332Z,99591.22
2023-10-27T17:41:12.032Z,99587.56
2023-10-27T17:43:40.395Z,99578.50
2023-10-27T17:46:10.977Z,99592.91
2023-10-27T17:48:41.875Z,99596.56
2023-10-27T17:51:11.613Z,99561.75
2023-10-27T17:53:41.506Z,99587.56
2023-10-27T17:56:10.951Z,99581.34
2023-10-27T17:58:39.931Z,99585.84
2023-10-27T18:01:09.709Z,99591.22
2023-10-27T18:03:38.833Z,99587.56
2023-10-27T18:06:09.042Z,99579.69
2023-10-27T18:08:39.595Z,99587.56
2023-10-27T18:11:09.739Z,99591.22
2023-10-27T18:13:38.216Z,99591.22
2023-10-27T18:16:08.623Z,99582.19
2023-10-27T18:18:37.792Z,99586.69
2023-10-27T18:21:07.786Z,99589.53
2023-10-27T18:23:36.221Z,99579.16
2023-10-27T18:26:14.298Z,99578.84
2023-10-27T18:28:42.758Z,99587.56
2023-10-27T18:31:11.083Z,99592.91
2023-10-27T18:33:40.093Z,99590.22
2023-10-27T18:36:13.363Z,99590.22
2023-10-27T18:38:41.776Z,99594.56
2023-10-27T18:41:13.178Z,99586.19
2023-10-27T18:43:45.181Z,99593.88
2023-10-27T18:46:15.513Z,99591.22
2023-10-27T18:48:44.374Z,99584.19
2023-10-27T18:51:13.946Z,99587.88
2023-10-27T18:53:42.580Z,99596.56
2023-10-27T18:56:11.324Z,99601.91
2023-10-27T18:58:42.758Z,99597.41
2023-10-27T19:01:12.374Z,99601.91
2023-10-27T19:03:42.084Z,99601.91
2023-10-27T19:06:10.880Z,99602.25
2023-10-27T19:08:39.422Z,99603.78
2023-10-27T19:11:11.342Z,99588.19
2023-10-27T19:13:41.390Z,99597.56
2023-10-27T19:16:12.169Z,99600.25
2023-10-27T19:18:40.948Z,99600.25
2023-10-27T19:21:11.360Z,99605.63
2023-10-27T19:23:40.695Z,99612.63
2023-10-27T19:26:16.389Z,99604.59
2023-10-27T19:28:45.708Z,99610.97
2023-10-27T19:31:16.747Z,99607.59
2023-10-27T19:33:45.919Z,99607.28
2023-10-27T19:36:14.994Z,99608.28
2023-10-27T19:38:43.564Z,99606.47
2023-10-27T19:41:13.535Z,99613.47
2023-10-27T19:43:42.188Z,99608.13
2023-10-27T19:46:13.378Z,99570.06
2023-10-27T19:48:44.000Z,99607.28
2023-10-27T19:51:13.625Z,99608.13
2023-10-27T19:53:42.783Z,99618.00
2023-10-27T19:56:13.193Z,99614.34
2023-10-27T19:58:42.707Z,99618.00
2023-10-27T20:01:15.317Z,99617.84
2023-10-27T20:03:45.695Z,99625.03
2023-10-27T20:06:15.516Z,99614.34
2023-10-27T20:08:44.535Z,99609.31
2023-10-27T20:11:14.574Z,99621.69
2023-10-27T20:13:45.094Z,99626.03
2023-10-27T20:16:14.837Z,99616.31
2023-10-27T20:18:46.692Z,99623.34
2023-10-27T20:21:15.281Z,99622.53
2023-10-27T20:23:44.223Z,99630.41
2023-10-27T20:26:14.586Z,99630.41
2023-10-27T20:28:42.835Z,99628.38
2023-10-27T20:31:11.100Z,99623.34
2023-10-27T20:33:39.335Z,99616.00
2023-10-27T20:36:10.527Z,99626.88
2023-10-27T20:38:39.853Z,99630.41
2023-10-27T20:41:08.510Z,99632.22
2023-10-27T20:43:38.411Z,99637.44
2023-10-27T20:46:07.873Z,99631.22
2023-10-27T20:48:36.313Z,99627.72
2023-10-27T20:51:05.224Z,99630.41
2023-10-27T20:53:34.772Z,99630.41
2023-10-27T20:56:03.329Z,99617.81
2023-10-27T20:58:31.592Z,99633.09
2023-10-27T21:01:05.320Z,99633.72
2023-10-27T21:03:33.644Z,99637.44
2023-10-27T21:06:06.464Z,99642.78
2023-10-27T21:08:36.218Z,99633.91
2023-10-27T21:11:05.874Z,99633.25
2023-10-27T21:13:34.182Z,99641.78
2023-10-27T21:16:06.233Z,99635.75
2023-10-27T21:18:34.445Z,99645.63
2023-10-27T21:21:03.627Z,99641.13
2023-10-27T21:23:31.927Z,99640.25
2023-10-27T21:26:01.676Z,99640.25
2023-10-27T21:28:30.538Z,99639.41
2023-10-27T21:30:59.162Z,99639.41
2023-10-27T21:33:28.337Z,99638.75
2023-10-27T21:35:57.442Z,99644.78
2023-10-27T21:38:25.694Z,99648.13
2023-10-27T21:40:53.888Z,99641.13
2023-10-27T21:43:23.593Z,99635.75
2023-10-27T21:45:51.776Z,99639.09
2023-10-27T21:48:21.590Z,99641.13
2023-10-27T21:50:49.862Z,99639.41
2023-10-27T21:53:18.832Z,99636.56
2023-10-27T21:55:47.043Z,99634.75
2023-10-27T21:58:15.227Z,99637.44
2023-10-27T22:00:45.074Z,99632.41
2023-10-27T22:03:18.592Z,99637.44
2023-10-27T22:05:48.263Z,99634.06
2023-10-27T22:08:16.525Z,99641.13
2023-10-27T22:10:44.838Z,99641.13
2023-10-27T22:13:12.988Z,99641.13
2023-10-27T22:15:41.770Z,99637.44
2023-10-27T22:18:11.780Z,99641.13
2023-10-27T22:20:41.853Z,99641.13
2023-10-27T22:23:10.411Z,99641.13
2023-10-27T22:25:39.330Z,99630.41
2023-10-27T22:28:16.449Z,99625.03
2023-10-27T22:30:45.751Z,99630.41
2023-10-27T22:33:15.580Z,99625.69
2023-10-27T22:35:43.974Z,99627.56
2023-10-27T22:38:12.363Z,99628.38
2023-10-27T22:40:40.762Z,99637.91
2023-10-27T22:43:09.111Z,99638.13
2023-10-27T22:45:40.593Z,99631.75
2023-10-27T22:48:10.124Z,99645.13
2023-10-27T22:50:39.783Z,99637.44
2023-10-27T22:53:09.067Z,99642.47
2023-10-27T22:55:37.308Z,99647.81
2023-10-27T22:58:05.946Z,99646.16
2023-10-27T23:00:34.145Z,99640.78
2023-10-27T23:03:02.405Z,99647.81
2023-10-27T23:05:33.718Z,99641.59
2023-10-27T23:08:05.805Z,99642.78
2023-10-27T23:10:34.554Z,99643.78
2023-10-27T23:13:06.358Z,99641.13
2023-10-27T23:15:36.657Z,99641.94
2023-10-27T23:18:05.524Z,99642.78
2023-10-27T23:20:34.159Z,99646.47
2023-10-27T23:23:03.801Z,99648.13
2023-10-27T23:25:34.332Z,99637.44
2023-10-27T23:28:02.707Z,99640.09
2023-10-27T23:30:31.765Z,99640.78
2023-10-27T23:33:00.120Z,99641.59
2023-10-27T23:35:28.985Z,99641.13
2023-10-27T23:37:58.608Z,99637.44
2023-10-27T23:40:28.296Z,99637.75
2023-10-27T23:42:56.525Z,99639.41
2023-10-27T23:45:26.474Z,99637.75
2023-10-27T23:47:55.525Z,99637.91
2023-10-27T23:50:23.725Z,99639.41
2023-10-27T23:52:51.931Z,99633.09
2023-10-27T23:55:20.143Z,99627.56
2023-10-27T23:57:49.723Z,99630.06
